sensor_id;sensor_type;location;lat;lon;timestamp;P1;durP1;ratioP1;P2;durP2;ratioP2
41693;SDS011;27377;50.666;9.150;2024-02-23T00:01:56;2.45;;;0.57;;
41693;SDS011;27377;50.666;9.150;2024-02-23T00:04:40;2.13;;;0.40;;
41693;SDS011;27377;50.666;9.150;2024-02-23T00:07:25;1.50;;;0.40;;
41693;SDS011;27377;50.666;9.150;2024-02-23T00:10:09;1.42;;;0.40;;
41693;SDS011;27377;50.666;9.150;2024-02-23T00:12:53;1.92;;;0.50;;
41693;SDS011;27377;50.666;9.150;2024-02-23T00:15:37;1.30;;;0.60;;
41693;SDS011;27377;50.666;9.150;2024-02-23T00:18:21;1.60;;;0.40;;
41693;SDS011;27377;50.666;9.150;2024-02-23T00:21:05;2.35;;;0.50;;
41693;SDS011;27377;50.666;9.150;2024-02-23T00:23:49;2.53;;;0.47;;
41693;SDS011;27377;50.666;9.150;2024-02-23T00:26:33;2.22;;;0.60;;
41693;SDS011;27377;50.666;9.150;2024-02-23T00:29:17;1.07;;;0.40;;
41693;SDS011;27377;50.666;9.150;2024-02-23T00:32:01;3.03;;;0.60;;
41693;SDS011;27377;50.666;9.150;2024-02-23T00:34:46;2.20;;;0.60;;
41693;SDS011;27377;50.666;9.150;2024-02-23T00:37:30;1.80;;;0.60;;
41693;SDS011;27377;50.666;9.150;2024-02-23T00:40:18;2.47;;;0.50;;
41693;SDS011;27377;50.666;9.150;2024-02-23T00:43:02;1.65;;;0.50;;
41693;SDS011;27377;50.666;9.150;2024-02-23T00:45:46;3.10;;;0.63;;
41693;SDS011;27377;50.666;9.150;2024-02-23T00:48:30;2.60;;;0.60;;
41693;SDS011;27377;50.666;9.150;2024-02-23T00:51:14;2.78;;;0.57;;
41693;SDS011;27377;50.666;9.150;2024-02-23T00:53:58;2.70;;;0.70;;
41693;SDS011;27377;50.666;9.150;2024-02-23T00:56:43;2.13;;;0.55;;
41693;SDS011;27377;50.666;9.150;2024-02-23T00:59:28;3.93;;;0.67;;
41693;SDS011;27377;50.666;9.150;2024-02-23T01:02:13;3.13;;;0.70;;
41693;SDS011;27377;50.666;9.150;2024-02-23T01:04:57;2.78;;;0.55;;
41693;SDS011;27377;50.666;9.150;2024-02-23T01:07:42;3.78;;;0.60;;
41693;SDS011;27377;50.666;9.150;2024-02-23T01:10:26;3.00;;;0.80;;
41693;SDS011;27377;50.666;9.150;2024-02-23T01:13:11;3.20;;;0.60;;
41693;SDS011;27377;50.666;9.150;2024-02-23T01:15:55;4.70;;;0.73;;
41693;SDS011;27377;50.666;9.150;2024-02-23T01:18:39;2.08;;;0.50;;
41693;SDS011;27377;50.666;9.150;2024-02-23T01:21:23;2.78;;;0.70;;
41693;SDS011;27377;50.666;9.150;2024-02-23T01:24:07;3.15;;;0.60;;
41693;SDS011;27377;50.666;9.150;2024-02-23T01:26:51;2.33;;;0.60;;
41693;SDS011;27377;50.666;9.150;2024-02-23T01:29:35;2.78;;;0.60;;
41693;SDS011;27377;50.666;9.150;2024-02-23T01:32:19;2.35;;;0.60;;
41693;SDS011;27377;50.666;9.150;2024-02-23T01:35:04;3.50;;;0.73;;
41693;SDS011;27377;50.666;9.150;2024-02-23T01:37:49;1.77;;;0.50;;
41693;SDS011;27377;50.666;9.150;2024-02-23T01:40:33;2.97;;;0.60;;
41693;SDS011;27377;50.666;9.150;2024-02-23T01:43:17;1.80;;;0.60;;
41693;SDS011;27377;50.666;9.150;2024-02-23T01:46:01;2.17;;;0.55;;
41693;SDS011;27377;50.666;9.150;2024-02-23T01:48:47;1.88;;;0.50;;
41693;SDS011;27377;50.666;9.150;2024-02-23T01:51:31;2.50;;;0.50;;
41693;SDS011;27377;50.666;9.150;2024-02-23T01:54:16;2.28;;;0.45;;
41693;SDS011;27377;50.666;9.150;2024-02-23T01:57:00;2.50;;;0.50;;
41693;SDS011;27377;50.666;9.150;2024-02-23T01:59:45;0.80;;;0.30;;
41693;SDS011;27377;50.666;9.150;2024-02-23T02:02:29;1.83;;;0.47;;
41693;SDS011;27377;50.666;9.150;2024-02-23T02:05:14;2.92;;;0.50;;
41693;SDS011;27377;50.666;9.150;2024-02-23T02:07:58;2.17;;;0.30;;
41693;SDS011;27377;50.666;9.150;2024-02-23T02:10:42;2.33;;;0.45;;
41693;SDS011;27377;50.666;9.150;2024-02-23T02:13:28;1.10;;;0.40;;
41693;SDS011;27377;50.666;9.150;2024-02-23T02:16:13;0.65;;;0.32;;
41693;SDS011;27377;50.666;9.150;2024-02-23T02:18:57;1.20;;;0.30;;
41693;SDS011;27377;50.666;9.150;2024-02-23T02:21:41;1.30;;;0.30;;
41693;SDS011;27377;50.666;9.150;2024-02-23T02:24:25;0.98;;;0.30;;
41693;SDS011;27377;50.666;9.150;2024-02-23T02:27:10;1.60;;;0.30;;
41693;SDS011;27377;50.666;9.150;2024-02-23T02:29:54;1.37;;;0.40;;
41693;SDS011;27377;50.666;9.150;2024-02-23T02:32:38;0.82;;;0.30;;
41693;SDS011;27377;50.666;9.150;2024-02-23T02:35:22;1.63;;;0.40;;
41693;SDS011;27377;50.666;9.150;2024-02-23T02:38:06;1.77;;;0.38;;
41693;SDS011;27377;50.666;9.150;2024-02-23T02:40:50;1.33;;;0.40;;
41693;SDS011;27377;50.666;9.150;2024-02-23T02:43:34;1.33;;;0.50;;
41693;SDS011;27377;50.666;9.150;2024-02-23T02:46:18;0.63;;;0.20;;
41693;SDS011;27377;50.666;9.150;2024-02-23T02:49:02;1.25;;;0.30;;
41693;SDS011;27377;50.666;9.150;2024-02-23T02:51:46;1.10;;;0.30;;
41693;SDS011;27377;50.666;9.150;2024-02-23T02:54:30;1.17;;;0.40;;
41693;SDS011;27377;50.666;9.150;2024-02-23T02:57:14;1.10;;;0.50;;
41693;SDS011;27377;50.666;9.150;2024-02-23T02:59:58;1.40;;;0.30;;
41693;SDS011;27377;50.666;9.150;2024-02-23T03:02:42;2.08;;;0.65;;
41693;SDS011;27377;50.666;9.150;2024-02-23T03:05:26;2.08;;;0.60;;
41693;SDS011;27377;50.666;9.150;2024-02-23T03:08:10;3.20;;;1.35;;
41693;SDS011;27377;50.666;9.150;2024-02-23T03:10:54;3.30;;;1.20;;
41693;SDS011;27377;50.666;9.150;2024-02-23T03:13:38;7.57;;;3.10;;
41693;SDS011;27377;50.666;9.150;2024-02-23T03:16:22;7.73;;;2.43;;
41693;SDS011;27377;50.666;9.150;2024-02-23T03:19:09;6.70;;;2.13;;
41693;SDS011;27377;50.666;9.150;2024-02-23T03:21:53;7.00;;;2.42;;
41693;SDS011;27377;50.666;9.150;2024-02-23T03:24:37;7.40;;;2.33;;
41693;SDS011;27377;50.666;9.150;2024-02-23T03:27:26;9.88;;;3.47;;
41693;SDS011;27377;50.666;9.150;2024-02-23T03:30:12;4.97;;;1.80;;
41693;SDS011;27377;50.666;9.150;2024-02-23T03:32:56;3.50;;;1.08;;
41693;SDS011;27377;50.666;9.150;2024-02-23T03:35:40;3.00;;;1.00;;
41693;SDS011;27377;50.666;9.150;2024-02-23T03:38:24;2.60;;;0.90;;
41693;SDS011;27377;50.666;9.150;2024-02-23T03:41:08;1.48;;;0.60;;
41693;SDS011;27377;50.666;9.150;2024-02-23T03:43:52;1.52;;;0.50;;
41693;SDS011;27377;50.666;9.150;2024-02-23T03:46:36;1.77;;;0.50;;
41693;SDS011;27377;50.666;9.150;2024-02-23T03:49:20;2.78;;;0.70;;
41693;SDS011;27377;50.666;9.150;2024-02-23T03:52:05;1.80;;;0.40;;
41693;SDS011;27377;50.666;9.150;2024-02-23T03:54:49;3.13;;;0.55;;
41693;SDS011;27377;50.666;9.150;2024-02-23T03:57:35;1.85;;;0.63;;
41693;SDS011;27377;50.666;9.150;2024-02-23T04:00:19;2.20;;;0.60;;
41693;SDS011;27377;50.666;9.150;2024-02-23T04:03:05;2.67;;;0.70;;
41693;SDS011;27377;50.666;9.150;2024-02-23T04:05:49;4.25;;;0.65;;
41693;SDS011;27377;50.666;9.150;2024-02-23T04:08:33;2.17;;;0.40;;
41693;SDS011;27377;50.666;9.150;2024-02-23T04:11:17;2.78;;;0.68;;
41693;SDS011;27377;50.666;9.150;2024-02-23T04:14:01;2.20;;;0.70;;
41693;SDS011;27377;50.666;9.150;2024-02-23T04:16:45;3.22;;;0.82;;
41693;SDS011;27377;50.666;9.150;2024-02-23T04:19:30;3.33;;;0.75;;
41693;SDS011;27377;50.666;9.150;2024-02-23T04:22:14;5.13;;;0.70;;
41693;SDS011;27377;50.666;9.150;2024-02-23T04:24:58;3.80;;;0.57;;
41693;SDS011;27377;50.666;9.150;2024-02-23T04:27:42;2.40;;;0.60;;
41693;SDS011;27377;50.666;9.150;2024-02-23T04:30:27;1.98;;;0.60;;
41693;SDS011;27377;50.666;9.150;2024-02-23T04:33:11;1.52;;;0.50;;
41693;SDS011;27377;50.666;9.150;2024-02-23T04:35:55;2.22;;;0.55;;
41693;SDS011;27377;50.666;9.150;2024-02-23T04:38:39;3.50;;;0.70;;
41693;SDS011;27377;50.666;9.150;2024-02-23T04:41:23;3.33;;;0.60;;
41693;SDS011;27377;50.666;9.150;2024-02-23T04:44:08;2.72;;;0.60;;
41693;SDS011;27377;50.666;9.150;2024-02-23T04:46:52;3.37;;;0.60;;
41693;SDS011;27377;50.666;9.150;2024-02-23T04:49:36;3.35;;;0.60;;
41693;SDS011;27377;50.666;9.150;2024-02-23T04:52:20;2.28;;;0.60;;
41693;SDS011;27377;50.666;9.150;2024-02-23T04:55:04;3.33;;;0.70;;
41693;SDS011;27377;50.666;9.150;2024-02-23T04:57:48;3.38;;;0.60;;
41693;SDS011;27377;50.666;9.150;2024-02-23T05:00:32;4.47;;;0.70;;
41693;SDS011;27377;50.666;9.150;2024-02-23T05:03:16;4.72;;;0.80;;
41693;SDS011;27377;50.666;9.150;2024-02-23T05:06:00;3.42;;;0.77;;
41693;SDS011;27377;50.666;9.150;2024-02-23T05:08:45;3.05;;;0.70;;
41693;SDS011;27377;50.666;9.150;2024-02-23T05:11:29;3.72;;;0.80;;
41693;SDS011;27377;50.666;9.150;2024-02-23T05:14:14;3.00;;;0.70;;
41693;SDS011;27377;50.666;9.150;2024-02-23T05:16:58;5.18;;;0.70;;
41693;SDS011;27377;50.666;9.150;2024-02-23T05:19:42;2.63;;;0.60;;
41693;SDS011;27377;50.666;9.150;2024-02-23T05:22:26;4.50;;;0.80;;
41693;SDS011;27377;50.666;9.150;2024-02-23T05:25:10;3.58;;;0.80;;
41693;SDS011;27377;50.666;9.150;2024-02-23T05:27:55;5.20;;;0.70;;
41693;SDS011;27377;50.666;9.150;2024-02-23T05:30:41;3.13;;;0.60;;
41693;SDS011;27377;50.666;9.150;2024-02-23T05:33:25;4.20;;;0.93;;
41693;SDS011;27377;50.666;9.150;2024-02-23T05:36:09;5.28;;;0.80;;
41693;SDS011;27377;50.666;9.150;2024-02-23T05:38:53;2.97;;;0.77;;
41693;SDS011;27377;50.666;9.150;2024-02-23T05:41:37;3.57;;;0.80;;
41693;SDS011;27377;50.666;9.150;2024-02-23T05:44:22;3.53;;;1.20;;
41693;SDS011;27377;50.666;9.150;2024-02-23T05:47:07;3.30;;;0.98;;
41693;SDS011;27377;50.666;9.150;2024-02-23T05:49:51;5.70;;;1.13;;
41693;SDS011;27377;50.666;9.150;2024-02-23T05:52:36;5.00;;;0.98;;
41693;SDS011;27377;50.666;9.150;2024-02-23T05:55:20;4.05;;;0.90;;
41693;SDS011;27377;50.666;9.150;2024-02-23T05:58:05;4.72;;;0.80;;
41693;SDS011;27377;50.666;9.150;2024-02-23T06:00:50;3.20;;;0.70;;
41693;SDS011;27377;50.666;9.150;2024-02-23T06:03:35;4.70;;;0.88;;
41693;SDS011;27377;50.666;9.150;2024-02-23T06:06:20;5.05;;;1.05;;
41693;SDS011;27377;50.666;9.150;2024-02-23T06:09:04;3.20;;;0.75;;
41693;SDS011;27377;50.666;9.150;2024-02-23T06:11:49;7.07;;;1.40;;
41693;SDS011;27377;50.666;9.150;2024-02-23T06:14:33;4.80;;;1.05;;
41693;SDS011;27377;50.666;9.150;2024-02-23T06:17:18;4.80;;;0.80;;
41693;SDS011;27377;50.666;9.150;2024-02-23T06:20:02;4.20;;;0.80;;
41693;SDS011;27377;50.666;9.150;2024-02-23T06:22:47;5.78;;;0.90;;
41693;SDS011;27377;50.666;9.150;2024-02-23T06:25:31;4.70;;;1.10;;
41693;SDS011;27377;50.666;9.150;2024-02-23T06:28:16;4.80;;;1.00;;
41693;SDS011;27377;50.666;9.150;2024-02-23T06:31:00;5.15;;;1.13;;
41693;SDS011;27377;50.666;9.150;2024-02-23T06:33:44;5.07;;;1.03;;
41693;SDS011;27377;50.666;9.150;2024-02-23T06:36:32;5.03;;;0.93;;
41693;SDS011;27377;50.666;9.150;2024-02-23T06:39:16;4.63;;;1.02;;
41693;SDS011;27377;50.666;9.150;2024-02-23T06:42:02;3.40;;;0.90;;
41693;SDS011;27377;50.666;9.150;2024-02-23T06:44:48;4.78;;;1.10;;
41693;SDS011;27377;50.666;9.150;2024-02-23T06:47:32;6.75;;;1.77;;
41693;SDS011;27377;50.666;9.150;2024-02-23T06:50:17;6.05;;;1.48;;
41693;SDS011;27377;50.666;9.150;2024-02-23T06:53:01;5.40;;;1.48;;
41693;SDS011;27377;50.666;9.150;2024-02-23T06:55:46;7.00;;;2.00;;
41693;SDS011;27377;50.666;9.150;2024-02-23T06:58:30;6.28;;;1.58;;
41693;SDS011;27377;50.666;9.150;2024-02-23T07:01:14;6.03;;;1.60;;
41693;SDS011;27377;50.666;9.150;2024-02-23T07:03:58;3.90;;;1.20;;
41693;SDS011;27377;50.666;9.150;2024-02-23T07:06:42;5.43;;;1.48;;
41693;SDS011;27377;50.666;9.150;2024-02-23T07:09:26;4.40;;;1.20;;
41693;SDS011;27377;50.666;9.150;2024-02-23T07:12:11;4.65;;;1.23;;
41693;SDS011;27377;50.666;9.150;2024-02-23T07:14:57;6.63;;;1.73;;
41693;SDS011;27377;50.666;9.150;2024-02-23T07:17:41;5.57;;;1.60;;
41693;SDS011;27377;50.666;9.150;2024-02-23T07:20:25;5.60;;;1.40;;
41693;SDS011;27377;50.666;9.150;2024-02-23T07:23:09;5.77;;;1.50;;
41693;SDS011;27377;50.666;9.150;2024-02-23T07:25:54;5.30;;;1.50;;
41693;SDS011;27377;50.666;9.150;2024-02-23T07:28:38;5.90;;;1.40;;
41693;SDS011;27377;50.666;9.150;2024-02-23T07:31:22;4.43;;;1.35;;
41693;SDS011;27377;50.666;9.150;2024-02-23T07:34:07;5.05;;;1.15;;
41693;SDS011;27377;50.666;9.150;2024-02-23T07:36:52;4.68;;;1.20;;
41693;SDS011;27377;50.666;9.150;2024-02-23T07:39:37;5.15;;;1.30;;
41693;SDS011;27377;50.666;9.150;2024-02-23T07:42:21;4.38;;;1.17;;
41693;SDS011;27377;50.666;9.150;2024-02-23T07:45:06;5.97;;;1.63;;
41693;SDS011;27377;50.666;9.150;2024-02-23T07:47:52;6.10;;;1.17;;
41693;SDS011;27377;50.666;9.150;2024-02-23T07:50:36;4.93;;;1.33;;
41693;SDS011;27377;50.666;9.150;2024-02-23T07:53:20;4.13;;;1.40;;
41693;SDS011;27377;50.666;9.150;2024-02-23T07:56:07;4.80;;;1.10;;
41693;SDS011;27377;50.666;9.150;2024-02-23T07:58:51;6.70;;;1.60;;
41693;SDS011;27377;50.666;9.150;2024-02-23T08:01:35;5.37;;;1.23;;
41693;SDS011;27377;50.666;9.150;2024-02-23T08:04:19;4.40;;;1.20;;
41693;SDS011;27377;50.666;9.150;2024-02-23T08:07:03;5.22;;;1.20;;
41693;SDS011;27377;50.666;9.150;2024-02-23T08:09:48;4.13;;;1.20;;
41693;SDS011;27377;50.666;9.150;2024-02-23T08:12:32;4.68;;;1.23;;
41693;SDS011;27377;50.666;9.150;2024-02-23T08:15:16;5.30;;;1.17;;
41693;SDS011;27377;50.666;9.150;2024-02-23T08:18:00;5.40;;;1.47;;
41693;SDS011;27377;50.666;9.150;2024-02-23T08:20:44;6.50;;;1.17;;
41693;SDS011;27377;50.666;9.150;2024-02-23T08:23:28;5.60;;;1.17;;
41693;SDS011;27377;50.666;9.150;2024-02-23T08:26:13;5.57;;;1.30;;
41693;SDS011;27377;50.666;9.150;2024-02-23T08:28:58;6.22;;;1.70;;
41693;SDS011;27377;50.666;9.150;2024-02-23T08:31:43;8.50;;;1.90;;
41693;SDS011;27377;50.666;9.150;2024-02-23T08:34:27;4.90;;;1.30;;
41693;SDS011;27377;50.666;9.150;2024-02-23T08:37:11;3.72;;;1.02;;
41693;SDS011;27377;50.666;9.150;2024-02-23T08:39:55;4.05;;;1.13;;
41693;SDS011;27377;50.666;9.150;2024-02-23T08:42:40;5.65;;;1.88;;
41693;SDS011;27377;50.666;9.150;2024-02-23T08:45:24;4.28;;;1.30;;
41693;SDS011;27377;50.666;9.150;2024-02-23T08:48:08;3.90;;;1.02;;
41693;SDS011;27377;50.666;9.150;2024-02-23T08:50:52;6.15;;;1.27;;
41693;SDS011;27377;50.666;9.150;2024-02-23T08:53:36;4.97;;;1.00;;
41693;SDS011;27377;50.666;9.150;2024-02-23T08:56:20;5.20;;;1.10;;
41693;SDS011;27377;50.666;9.150;2024-02-23T08:59:04;4.78;;;1.05;;
41693;SDS011;27377;50.666;9.150;2024-02-23T09:01:48;5.82;;;1.25;;
41693;SDS011;27377;50.666;9.150;2024-02-23T09:04:32;5.00;;;1.15;;
41693;SDS011;27377;50.666;9.150;2024-02-23T09:07:16;4.22;;;0.93;;
41693;SDS011;27377;50.666;9.150;2024-02-23T09:10:03;4.97;;;1.38;;
41693;SDS011;27377;50.666;9.150;2024-02-23T09:12:48;4.38;;;1.10;;
41693;SDS011;27377;50.666;9.150;2024-02-23T09:15:33;5.85;;;1.10;;
41693;SDS011;27377;50.666;9.150;2024-02-23T09:18:16;4.85;;;1.20;;
41693;SDS011;27377;50.666;9.150;2024-02-23T09:21:02;5.28;;;1.02;;
41693;SDS011;27377;50.666;9.150;2024-02-23T09:23:46;6.97;;;1.20;;
41693;SDS011;27377;50.666;9.150;2024-02-23T09:26:30;5.18;;;1.08;;
41693;SDS011;27377;50.666;9.150;2024-02-23T09:29:14;7.85;;;1.20;;
41693;SDS011;27377;50.666;9.150;2024-02-23T09:31:59;5.93;;;1.20;;
41693;SDS011;27377;50.666;9.150;2024-02-23T09:34:44;5.53;;;1.20;;
41693;SDS011;27377;50.666;9.150;2024-02-23T09:37:28;5.80;;;1.25;;
41693;SDS011;27377;50.666;9.150;2024-02-23T09:40:14;2.77;;;0.80;;
41693;SDS011;27377;50.666;9.150;2024-02-23T09:42:58;4.80;;;1.30;;
41693;SDS011;27377;50.666;9.150;2024-02-23T09:45:42;6.15;;;1.40;;
41693;SDS011;27377;50.666;9.150;2024-02-23T09:48:28;4.60;;;0.90;;
41693;SDS011;27377;50.666;9.150;2024-02-23T09:51:17;4.05;;;1.05;;
41693;SDS011;27377;50.666;9.150;2024-02-23T09:54:02;4.70;;;1.50;;
41693;SDS011;27377;50.666;9.150;2024-02-23T09:56:46;7.47;;;1.47;;
41693;SDS011;27377;50.666;9.150;2024-02-23T09:59:30;7.10;;;1.88;;
41693;SDS011;27377;50.666;9.150;2024-02-23T10:02:15;8.88;;;2.08;;
41693;SDS011;27377;50.666;9.150;2024-02-23T10:05:00;5.78;;;1.40;;
41693;SDS011;27377;50.666;9.150;2024-02-23T10:07:46;5.95;;;1.33;;
41693;SDS011;27377;50.666;9.150;2024-02-23T10:10:32;5.47;;;1.25;;
41693;SDS011;27377;50.666;9.150;2024-02-23T10:13:18;6.35;;;1.30;;
41693;SDS011;27377;50.666;9.150;2024-02-23T10:16:19;4.30;;;1.27;;
41693;SDS011;27377;50.666;9.150;2024-02-23T10:19:05;6.13;;;1.30;;
41693;SDS011;27377;50.666;9.150;2024-02-23T10:21:50;6.00;;;1.30;;
41693;SDS011;27377;50.666;9.150;2024-02-23T10:24:36;5.75;;;1.40;;
41693;SDS011;27377;50.666;9.150;2024-02-23T10:27:21;6.22;;;1.40;;
41693;SDS011;27377;50.666;9.150;2024-02-23T10:30:07;7.90;;;1.40;;
41693;SDS011;27377;50.666;9.150;2024-02-23T10:32:56;5.82;;;1.70;;
41693;SDS011;27377;50.666;9.150;2024-02-23T10:35:42;10.48;;;1.40;;
41693;SDS011;27377;50.666;9.150;2024-02-23T10:38:28;6.75;;;1.20;;
41693;SDS011;27377;50.666;9.150;2024-02-23T10:41:16;6.75;;;1.38;;
41693;SDS011;27377;50.666;9.150;2024-02-23T10:44:06;5.13;;;1.20;;
41693;SDS011;27377;50.666;9.150;2024-02-23T10:46:54;4.38;;;1.13;;
41693;SDS011;27377;50.666;9.150;2024-02-23T10:49:39;4.57;;;1.08;;
41693;SDS011;27377;50.666;9.150;2024-02-23T10:52:25;3.85;;;1.00;;
41693;SDS011;27377;50.666;9.150;2024-02-23T10:55:13;7.07;;;1.40;;
41693;SDS011;27377;50.666;9.150;2024-02-23T10:57:58;6.38;;;1.20;;
41693;SDS011;27377;50.666;9.150;2024-02-23T11:00:42;8.40;;;1.40;;
41693;SDS011;27377;50.666;9.150;2024-02-23T11:03:33;9.40;;;1.35;;
41693;SDS011;27377;50.666;9.150;2024-02-23T11:06:19;5.55;;;1.20;;
41693;SDS011;27377;50.666;9.150;2024-02-23T11:09:12;5.80;;;1.20;;
41693;SDS011;27377;50.666;9.150;2024-02-23T11:11:57;5.60;;;1.27;;
41693;SDS011;27377;50.666;9.150;2024-02-23T11:14:42;5.63;;;1.50;;
41693;SDS011;27377;50.666;9.150;2024-02-23T11:17:31;6.47;;;1.17;;
41693;SDS011;27377;50.666;9.150;2024-02-23T11:20:16;6.97;;;1.30;;
41693;SDS011;27377;50.666;9.150;2024-02-23T11:23:01;5.47;;;1.00;;
41693;SDS011;27377;50.666;9.150;2024-02-23T11:25:58;7.70;;;1.30;;
41693;SDS011;27377;50.666;9.150;2024-02-23T11:28:51;7.30;;;1.00;;
41693;SDS011;27377;50.666;9.150;2024-02-23T11:31:44;5.67;;;1.10;;
41693;SDS011;27377;50.666;9.150;2024-02-23T11:34:30;4.55;;;1.20;;
41693;SDS011;27377;50.666;9.150;2024-02-23T11:37:15;5.88;;;1.30;;
41693;SDS011;27377;50.666;9.150;2024-02-23T11:40:02;5.38;;;1.20;;
41693;SDS011;27377;50.666;9.150;2024-02-23T11:42:48;7.30;;;1.30;;
41693;SDS011;27377;50.666;9.150;2024-02-23T11:45:34;5.45;;;1.05;;
41693;SDS011;27377;50.666;9.150;2024-02-23T11:48:19;5.20;;;1.10;;
41693;SDS011;27377;50.666;9.150;2024-02-23T11:51:05;7.50;;;1.20;;
41693;SDS011;27377;50.666;9.150;2024-02-23T11:53:50;6.88;;;1.40;;
41693;SDS011;27377;50.666;9.150;2024-02-23T11:56:35;5.40;;;1.40;;
41693;SDS011;27377;50.666;9.150;2024-02-23T11:59:20;5.40;;;1.38;;
41693;SDS011;27377;50.666;9.150;2024-02-23T12:02:06;6.70;;;1.13;;
41693;SDS011;27377;50.666;9.150;2024-02-23T12:04:51;7.17;;;1.17;;
41693;SDS011;27377;50.666;9.150;2024-02-23T12:07:36;8.73;;;1.70;;
41693;SDS011;27377;50.666;9.150;2024-02-23T12:10:21;5.45;;;1.00;;
41693;SDS011;27377;50.666;9.150;2024-02-23T12:13:05;6.88;;;1.13;;
41693;SDS011;27377;50.666;9.150;2024-02-23T12:15:52;5.43;;;1.10;;
41693;SDS011;27377;50.666;9.150;2024-02-23T12:18:38;5.37;;;1.10;;
41693;SDS011;27377;50.666;9.150;2024-02-23T12:21:23;4.95;;;1.42;;
41693;SDS011;27377;50.666;9.150;2024-02-23T12:24:09;5.57;;;1.20;;
41693;SDS011;27377;50.666;9.150;2024-02-23T12:26:54;7.32;;;1.38;;
41693;SDS011;27377;50.666;9.150;2024-02-23T12:29:40;5.88;;;1.08;;
41693;SDS011;27377;50.666;9.150;2024-02-23T12:32:25;5.80;;;1.30;;
41693;SDS011;27377;50.666;9.150;2024-02-23T12:35:11;5.97;;;1.27;;
41693;SDS011;27377;50.666;9.150;2024-02-23T12:37:56;6.33;;;1.40;;
41693;SDS011;27377;50.666;9.150;2024-02-23T12:40:41;6.68;;;1.40;;
41693;SDS011;27377;50.666;9.150;2024-02-23T12:43:26;5.30;;;1.10;;
41693;SDS011;27377;50.666;9.150;2024-02-23T12:46:10;7.47;;;1.35;;
41693;SDS011;27377;50.666;9.150;2024-02-23T12:48:57;11.30;;;1.67;;
41693;SDS011;27377;50.666;9.150;2024-02-23T12:51:42;5.97;;;1.30;;
41693;SDS011;27377;50.666;9.150;2024-02-23T12:54:26;6.05;;;1.13;;
41693;SDS011;27377;50.666;9.150;2024-02-23T12:57:11;5.82;;;1.10;;
41693;SDS011;27377;50.666;9.150;2024-02-23T12:59:55;5.88;;;1.20;;
41693;SDS011;27377;50.666;9.150;2024-02-23T13:02:41;5.85;;;1.30;;
41693;SDS011;27377;50.666;9.150;2024-02-23T13:05:26;6.67;;;1.60;;
41693;SDS011;27377;50.666;9.150;2024-02-23T13:08:10;6.30;;;1.20;;
41693;SDS011;27377;50.666;9.150;2024-02-23T13:10:56;6.00;;;1.30;;
41693;SDS011;27377;50.666;9.150;2024-02-23T13:13:41;5.55;;;1.08;;
41693;SDS011;27377;50.666;9.150;2024-02-23T13:16:26;5.10;;;1.40;;
41693;SDS011;27377;50.666;9.150;2024-02-23T13:19:11;5.22;;;1.30;;
41693;SDS011;27377;50.666;9.150;2024-02-23T13:21:57;4.93;;;1.10;;
41693;SDS011;27377;50.666;9.150;2024-02-23T13:24:44;5.97;;;1.15;;
41693;SDS011;27377;50.666;9.150;2024-02-23T13:27:28;5.05;;;1.05;;
41693;SDS011;27377;50.666;9.150;2024-02-23T13:30:13;5.93;;;1.33;;
41693;SDS011;27377;50.666;9.150;2024-02-23T13:32:58;5.67;;;1.27;;
41693;SDS011;27377;50.666;9.150;2024-02-23T13:35:42;2.20;;;0.70;;
41693;SDS011;27377;50.666;9.150;2024-02-23T13:38:27;3.03;;;0.70;;
41693;SDS011;27377;50.666;9.150;2024-02-23T13:41:11;2.17;;;0.75;;
41693;SDS011;27377;50.666;9.150;2024-02-23T13:43:55;3.97;;;0.85;;
41693;SDS011;27377;50.666;9.150;2024-02-23T13:46:39;4.15;;;0.90;;
41693;SDS011;27377;50.666;9.150;2024-02-23T13:49:24;4.68;;;1.05;;
41693;SDS011;27377;50.666;9.150;2024-02-23T13:52:08;4.80;;;0.90;;
41693;SDS011;27377;50.666;9.150;2024-02-23T13:54:52;4.65;;;0.90;;
41693;SDS011;27377;50.666;9.150;2024-02-23T13:57:37;4.57;;;1.20;;
41693;SDS011;27377;50.666;9.150;2024-02-23T14:00:21;5.03;;;1.10;;
41693;SDS011;27377;50.666;9.150;2024-02-23T14:03:05;4.03;;;1.00;;
41693;SDS011;27377;50.666;9.150;2024-02-23T14:05:50;4.90;;;1.00;;
41693;SDS011;27377;50.666;9.150;2024-02-23T14:08:35;4.30;;;0.90;;
41693;SDS011;27377;50.666;9.150;2024-02-23T14:11:21;6.20;;;1.00;;
41693;SDS011;27377;50.666;9.150;2024-02-23T14:14:06;4.90;;;1.10;;
41693;SDS011;27377;50.666;9.150;2024-02-23T14:16:51;4.77;;;1.00;;
41693;SDS011;27377;50.666;9.150;2024-02-23T14:19:35;4.72;;;1.00;;
41693;SDS011;27377;50.666;9.150;2024-02-23T14:22:25;6.50;;;1.48;;
41693;SDS011;27377;50.666;9.150;2024-02-23T14:25:11;6.72;;;1.45;;
41693;SDS011;27377;50.666;9.150;2024-02-23T14:27:56;3.95;;;1.30;;
41693;SDS011;27377;50.666;9.150;2024-02-23T14:30:41;5.07;;;1.40;;
41693;SDS011;27377;50.666;9.150;2024-02-23T14:33:26;5.70;;;1.20;;
41693;SDS011;27377;50.666;9.150;2024-02-23T14:36:10;4.68;;;1.10;;
41693;SDS011;27377;50.666;9.150;2024-02-23T14:38:57;6.70;;;1.23;;
41693;SDS011;27377;50.666;9.150;2024-02-23T14:41:42;4.13;;;1.30;;
41693;SDS011;27377;50.666;9.150;2024-02-23T14:44:26;5.72;;;1.20;;
41693;SDS011;27377;50.666;9.150;2024-02-23T14:47:13;5.00;;;1.40;;
41693;SDS011;27377;50.666;9.150;2024-02-23T14:49:58;6.15;;;1.40;;
41693;SDS011;27377;50.666;9.150;2024-02-23T14:52:45;5.00;;;1.25;;
41693;SDS011;27377;50.666;9.150;2024-02-23T14:55:29;4.57;;;1.33;;
41693;SDS011;27377;50.666;9.150;2024-02-23T14:58:13;5.07;;;1.00;;
41693;SDS011;27377;50.666;9.150;2024-02-23T15:00:58;6.72;;;1.45;;
41693;SDS011;27377;50.666;9.150;2024-02-23T15:03:42;4.25;;;1.10;;
41693;SDS011;27377;50.666;9.150;2024-02-23T15:06:30;6.47;;;1.33;;
41693;SDS011;27377;50.666;9.150;2024-02-23T15:09:15;4.82;;;1.20;;
41693;SDS011;27377;50.666;9.150;2024-02-23T15:11:59;5.10;;;1.30;;
41693;SDS011;27377;50.666;9.150;2024-02-23T15:14:49;5.67;;;1.20;;
41693;SDS011;27377;50.666;9.150;2024-02-23T15:17:34;5.50;;;1.10;;
41693;SDS011;27377;50.666;9.150;2024-02-23T15:20:18;6.70;;;1.20;;
41693;SDS011;27377;50.666;9.150;2024-02-23T15:23:03;6.77;;;1.30;;
41693;SDS011;27377;50.666;9.150;2024-02-23T15:25:48;4.43;;;1.00;;
41693;SDS011;27377;50.666;9.150;2024-02-23T15:28:33;5.28;;;1.10;;
41693;SDS011;27377;50.666;9.150;2024-02-23T15:31:18;5.63;;;1.30;;
41693;SDS011;27377;50.666;9.150;2024-02-23T15:34:02;6.60;;;1.45;;
41693;SDS011;27377;50.666;9.150;2024-02-23T15:36:50;5.17;;;1.27;;
41693;SDS011;27377;50.666;9.150;2024-02-23T15:39:35;5.50;;;1.50;;
41693;SDS011;27377;50.666;9.150;2024-02-23T15:42:19;6.47;;;1.25;;
41693;SDS011;27377;50.666;9.150;2024-02-23T15:45:04;5.90;;;1.20;;
41693;SDS011;27377;50.666;9.150;2024-02-23T15:47:52;4.38;;;1.30;;
41693;SDS011;27377;50.666;9.150;2024-02-23T15:50:39;4.78;;;1.15;;
41693;SDS011;27377;50.666;9.150;2024-02-23T15:53:24;4.60;;;1.20;;
41693;SDS011;27377;50.666;9.150;2024-02-23T15:56:08;4.32;;;1.00;;
41693;SDS011;27377;50.666;9.150;2024-02-23T15:58:53;5.40;;;1.30;;
41693;SDS011;27377;50.666;9.150;2024-02-23T16:01:42;6.07;;;1.48;;
41693;SDS011;27377;50.666;9.150;2024-02-23T16:04:27;6.70;;;1.48;;
41693;SDS011;27377;50.666;9.150;2024-02-23T16:07:11;5.65;;;1.42;;
41693;SDS011;27377;50.666;9.150;2024-02-23T16:09:56;6.45;;;1.25;;
41693;SDS011;27377;50.666;9.150;2024-02-23T16:12:40;7.95;;;1.38;;
41693;SDS011;27377;50.666;9.150;2024-02-23T16:15:25;6.18;;;1.52;;
41693;SDS011;27377;50.666;9.150;2024-02-23T16:18:12;5.10;;;1.27;;
41693;SDS011;27377;50.666;9.150;2024-02-23T16:20:57;4.10;;;0.95;;
41693;SDS011;27377;50.666;9.150;2024-02-23T16:23:42;7.05;;;1.30;;
41693;SDS011;27377;50.666;9.150;2024-02-23T16:26:27;4.47;;;1.02;;
41693;SDS011;27377;50.666;9.150;2024-02-23T16:29:11;4.97;;;1.30;;
41693;SDS011;27377;50.666;9.150;2024-02-23T16:31:55;7.32;;;1.30;;
41693;SDS011;27377;50.666;9.150;2024-02-23T16:34:40;4.40;;;1.10;;